sensor_id;sensor_type;location;lat;lon;timestamp;temperature;humidity
18779;DHT22;9518;51.720;14.384;2023-10-19T00:01:21;4.80;99.90
18779;DHT22;9518;51.720;14.384;2023-10-19T00:03:51;4.80;99.90
18779;DHT22;9518;51.720;14.384;2023-10-19T00:06:18;4.70;99.90
18779;DHT22;9518;51.720;14.384;2023-10-19T00:08:47;4.80;99.90
18779;DHT22;9518;51.720;14.384;2023-10-19T00:11:13;4.80;99.90
18779;DHT22;9518;51.720;14.384;2023-10-19T00:13:47;4.70;99.90
18779;DHT22;9518;51.720;14.384;2023-10-19T00:16:15;4.70;99.90
18779;DHT22;9518;51.720;14.384;2023-10-19T00:18:43;4.60;99.90
18779;DHT22;9518;51.720;14.384;2023-10-19T00:21:10;4.60;99.90
18779;DHT22;9518;51.720;14.384;2023-10-19T00:28:57;4.60;99.90
18779;DHT22;9518;51.720;14.384;2023-10-19T00:31:27;4.50;99.90
18779;DHT22;9518;51.720;14.384;2023-10-19T00:33:55;4.60;99.90
18779;DHT22;9518;51.720;14.384;2023-10-19T00:36:23;4.50;99.90
18779;DHT22;9518;51.720;14.384;2023-10-19T00:38:51;4.50;99.90
18779;DHT22;9518;51.720;14.384;2023-10-19T00:41:23;4.50;99.90
18779;DHT22;9518;51.720;14.384;2023-10-19T00:46:31;4.40;99.90
18779;DHT22;9518;51.720;14.384;2023-10-19T00:49:07;4.30;99.90
18779;DHT22;9518;51.720;14.384;2023-10-19T00:51:39;4.40;99.90
18779;DHT22;9518;51.720;14.384;2023-10-19T00:54:30;4.40;99.90
18779;DHT22;9518;51.720;14.384;2023-10-19T00:57:06;4.40;99.90
18779;DHT22;9518;51.720;14.384;2023-10-19T00:59:38;4.40;99.90
18779;DHT22;9518;51.720;14.384;2023-10-19T01:02:10;4.40;99.90
18779;DHT22;9518;51.720;14.384;2023-10-19T01:04:55;4.30;99.90
18779;DHT22;9518;51.720;14.384;2023-10-19T03:52:57;4.60;99.90
18779;DHT22;9518;51.720;14.384;2023-10-19T03:55:25;4.60;99.90
18779;DHT22;9518;51.720;14.384;2023-10-19T03:57:55;4.60;99.90
18779;DHT22;9518;51.720;14.384;2023-10-19T04:00:22;4.60;99.90
18779;DHT22;9518;51.720;14.384;2023-10-19T04:02:52;4.60;99.90
18779;DHT22;9518;51.720;14.384;2023-10-19T04:05:21;4.60;99.90
18779;DHT22;9518;51.720;14.384;2023-10-19T04:07:49;4.60;99.90
18779;DHT22;9518;51.720;14.384;2023-10-19T04:10:22;4.60;99.90
18779;DHT22;9518;51.720;14.384;2023-10-19T04:13:04;4.60;99.90
18779;DHT22;9518;51.720;14.384;2023-10-19T04:15:35;4.70;99.90
18779;DHT22;9518;51.720;14.384;2023-10-19T04:18:04;4.70;99.90
18779;DHT22;9518;51.720;14.384;2023-10-19T04:20:36;4.70;99.90
18779;DHT22;9518;51.720;14.384;2023-10-19T04:23:20;4.70;99.90
18779;DHT22;9518;51.720;14.384;2023-10-19T04:25:49;4.70;99.90
18779;DHT22;9518;51.720;14.384;2023-10-19T04:28:17;4.70;99.90
18779;DHT22;9518;51.720;14.384;2023-10-19T04:30:48;4.70;99.90
18779;DHT22;9518;51.720;14.384;2023-10-19T04:33:15;4.80;99.90
18779;DHT22;9518;51.720;14.384;2023-10-19T04:35:44;4.80;99.90
18779;DHT22;9518;51.720;14.384;2023-10-19T04:38:11;4.80;99.90
18779;DHT22;9518;51.720;14.384;2023-10-19T04:40:39;4.80;99.90
18779;DHT22;9518;51.720;14.384;2023-10-19T04:43:09;4.90;99.90
18779;DHT22;9518;51.720;14.384;2023-10-19T04:45:39;4.90;99.90
18779;DHT22;9518;51.720;14.384;2023-10-19T04:48:07;5.00;99.90
18779;DHT22;9518;51.720;14.384;2023-10-19T04:50:35;4.90;99.90
18779;DHT22;9518;51.720;14.384;2023-10-19T04:53:03;4.90;99.90
18779;DHT22;9518;51.720;14.384;2023-10-19T04:55:30;4.90;99.90
18779;DHT22;9518;51.720;14.384;2023-10-19T04:57:57;4.90;99.90
18779;DHT22;9518;51.720;14.384;2023-10-19T05:00:26;4.90;99.90
18779;DHT22;9518;51.720;14.384;2023-10-19T05:02:53;4.90;99.90
18779;DHT22;9518;51.720;14.384;2023-10-19T05:05:21;5.00;99.90
18779;DHT22;9518;51.720;14.384;2023-10-19T05:07:48;5.00;99.90
18779;DHT22;9518;51.720;14.384;2023-10-19T05:10:15;5.00;99.90
18779;DHT22;9518;51.720;14.384;2023-10-19T05:12:42;5.00;99.90
18779;DHT22;9518;51.720;14.384;2023-10-19T05:15:10;5.00;99.90
18779;DHT22;9518;51.720;14.384;2023-10-19T05:17:39;5.00;99.90
18779;DHT22;9518;51.720;14.384;2023-10-19T05:20:07;4.90;99.90
18779;DHT22;9518;51.720;14.384;2023-10-19T05:22:34;4.90;99.90
18779;DHT22;9518;51.720;14.384;2023-10-19T05:25:02;4.90;99.90
18779;DHT22;9518;51.720;14.384;2023-10-19T05:27:29;4.90;99.90
18779;DHT22;9518;51.720;14.384;2023-10-19T05:29:56;4.90;99.90
18779;DHT22;9518;51.720;14.384;2023-10-19T05:32:24;4.80;99.90
18779;DHT22;9518;51.720;14.384;2023-10-19T05:34:52;4.90;99.90
18779;DHT22;9518;51.720;14.384;2023-10-19T05:37:19;4.80;99.90
18779;DHT22;9518;51.720;14.384;2023-10-19T05:39:47;4.80;99.90
18779;DHT22;9518;51.720;14.384;2023-10-19T05:42:17;4.80;99.90
18779;DHT22;9518;51.720;14.384;2023-10-19T05:44:44;4.80;99.90
18779;DHT22;9518;51.720;14.384;2023-10-19T05:47:11;4.70;99.90
18779;DHT22;9518;51.720;14.384;2023-10-19T05:49:39;4.70;99.90
18779;DHT22;9518;51.720;14.384;2023-10-19T05:52:07;4.70;99.90
18779;DHT22;9518;51.720;14.384;2023-10-19T05:54:36;4.80;99.90
18779;DHT22;9518;51.720;14.384;2023-10-19T05:57:03;4.90;99.90
18779;DHT22;9518;51.720;14.384;2023-10-19T05:59:34;4.90;99.90
18779;DHT22;9518;51.720;14.384;2023-10-19T06:02:01;4.90;99.90
18779;DHT22;9518;51.720;14.384;2023-10-19T06:04:28;4.80;99.90
18779;DHT22;9518;51.720;14.384;2023-10-19T06:06:57;4.80;99.90
18779;DHT22;9518;51.720;14.384;2023-10-19T06:09:25;4.80;99.90
18779;DHT22;9518;51.720;14.384;2023-10-19T06:11:55;4.80;99.90
18779;DHT22;9518;51.720;14.384;2023-10-19T06:14:22;4.80;99.90
18779;DHT22;9518;51.720;14.384;2023-10-19T06:16:49;4.90;99.90
18779;DHT22;9518;51.720;14.384;2023-10-19T06:19:16;4.90;99.90
18779;DHT22;9518;51.720;14.384;2023-10-19T06:21:43;4.90;99.90
18779;DHT22;9518;51.720;14.384;2023-10-19T06:24:10;4.90;99.90
18779;DHT22;9518;51.720;14.384;2023-10-19T06:26:42;4.90;99.90
18779;DHT22;9518;51.720;14.384;2023-10-19T06:29:09;4.90;99.90
18779;DHT22;9518;51.720;14.384;2023-10-19T06:31:36;4.90;99.90
18779;DHT22;9518;51.720;14.384;2023-10-19T06:34:04;4.90;99.90
18779;DHT22;9518;51.720;14.384;2023-10-19T06:36:31;5.00;99.90
18779;DHT22;9518;51.720;14.384;2023-10-19T06:38:58;5.00;99.90
18779;DHT22;9518;51.720;14.384;2023-10-19T06:41:31;5.10;99.90
18779;DHT22;9518;51.720;14.384;2023-10-19T06:44:02;5.10;99.90
18779;DHT22;9518;51.720;14.384;2023-10-19T06:46:29;5.10;99.90
18779;DHT22;9518;51.720;14.384;2023-10-19T06:48:57;5.20;99.90
18779;DHT22;9518;51.720;14.384;2023-10-19T06:51:26;5.20;99.90
18779;DHT22;9518;51.720;14.384;2023-10-19T06:53:53;5.20;99.90
18779;DHT22;9518;51.720;14.384;2023-10-19T06:56:21;5.20;99.90
18779;DHT22;9518;51.720;14.384;2023-10-19T06:58:48;5.20;99.90
18779;DHT22;9518;51.720;14.384;2023-10-19T07:01:17;5.30;99.90
18779;DHT22;9518;51.720;14.384;2023-10-19T07:03:44;5.30;99.90
18779;DHT22;9518;51.720;14.384;2023-10-19T07:06:11;5.40;99.90
18779;DHT22;9518;51.720;14.384;2023-10-19T07:08:39;5.50;99.90
18779;DHT22;9518;51.720;14.384;2023-10-19T07:11:07;5.50;99.90
18779;DHT22;9518;51.720;14.384;2023-10-19T07:13:34;5.50;99.90
18779;DHT22;9518;51.720;14.384;2023-10-19T07:16:02;5.50;99.90
18779;DHT22;9518;51.720;14.384;2023-10-19T07:18:34;5.60;99.90
18779;DHT22;9518;51.720;14.384;2023-10-19T07:21:02;5.70;99.90
18779;DHT22;9518;51.720;14.384;2023-10-19T07:23:31;5.70;99.90
18779;DHT22;9518;51.720;14.384;2023-10-19T07:25:59;5.80;99.90
18779;DHT22;9518;51.720;14.384;2023-10-19T07:28:26;5.80;99.90
18779;DHT22;9518;51.720;14.384;2023-10-19T07:30:53;5.80;99.90
18779;DHT22;9518;51.720;14.384;2023-10-19T07:33:21;5.90;99.90
18779;DHT22;9518;51.720;14.384;2023-10-19T07:35:50;5.90;99.90
18779;DHT22;9518;51.720;14.384;2023-10-19T07:38:21;6.00;99.90
18779;DHT22;9518;51.720;14.384;2023-10-19T07:40:48;5.90;99.90
18779;DHT22;9518;51.720;14.384;2023-10-19T07:43:18;5.90;99.90
18779;DHT22;9518;51.720;14.384;2023-10-19T07:45:46;6.00;99.90
18779;DHT22;9518;51.720;14.384;2023-10-19T07:48:14;6.00;99.90
18779;DHT22;9518;51.720;14.384;2023-10-19T07:50:43;6.00;99.90
18779;DHT22;9518;51.720;14.384;2023-10-19T07:53:12;6.00;99.90
18779;DHT22;9518;51.720;14.384;2023-10-19T07:55:40;6.10;99.90
18779;DHT22;9518;51.720;14.384;2023-10-19T07:58:08;6.10;99.90
18779;DHT22;9518;51.720;14.384;2023-10-19T08:00:36;6.20;99.90
18779;DHT22;9518;51.720;14.384;2023-10-19T08:03:05;6.20;99.90
18779;DHT22;9518;51.720;14.384;2023-10-19T08:05:34;6.30;99.90
18779;DHT22;9518;51.720;14.384;2023-10-19T08:08:02;6.40;99.90
18779;DHT22;9518;51.720;14.384;2023-10-19T08:10:33;6.40;99.90
18779;DHT22;9518;51.720;14.384;2023-10-19T08:13:00;6.50;99.90
18779;DHT22;9518;51.720;14.384;2023-10-19T08:15:28;6.50;99.90
18779;DHT22;9518;51.720;14.384;2023-10-19T08:17:56;6.60;99.90
18779;DHT22;9518;51.720;14.384;2023-10-19T08:20:23;6.60;99.90
18779;DHT22;9518;51.720;14.384;2023-10-19T08:22:51;6.60;99.90
18779;DHT22;9518;51.720;14.384;2023-10-19T12:18:24;8.70;99.90
18779;DHT22;9518;51.720;14.384;2023-10-19T12:20:52;8.70;99.90
18779;DHT22;9518;51.720;14.384;2023-10-19T12:23:24;8.70;99.90
18779;DHT22;9518;51.720;14.384;2023-10-19T12:25:51;8.70;99.90
18779;DHT22;9518;51.720;14.384;2023-10-19T12:28:19;8.70;99.90
18779;DHT22;9518;51.720;14.384;2023-10-19T12:30:46;8.80;99.90
18779;DHT22;9518;51.720;14.384;2023-10-19T12:33:14;8.90;99.90
18779;DHT22;9518;51.720;14.384;2023-10-19T12:35:44;9.10;99.90
18779;DHT22;9518;51.720;14.384;2023-10-19T12:38:15;9.20;99.90
18779;DHT22;9518;51.720;14.384;2023-10-19T12:40:44;9.30;99.90
18779;DHT22;9518;51.720;14.384;2023-10-19T12:43:12;9.50;99.90
18779;DHT22;9518;51.720;14.384;2023-10-19T12:45:40;9.50;99.90
18779;DHT22;9518;51.720;14.384;2023-10-19T12:48:09;9.50;99.90
18779;DHT22;9518;51.720;14.384;2023-10-19T12:50:37;9.50;99.90
18779;DHT22;9518;51.720;14.384;2023-10-19T12:53:08;9.50;99.90
18779;DHT22;9518;51.720;14.384;2023-10-19T12:55:41;9.50;99.90
18779;DHT22;9518;51.720;14.384;2023-10-19T12:58:09;9.40;99.90
18779;DHT22;9518;51.720;14.384;2023-10-19T13:00:37;9.40;99.90
18779;DHT22;9518;51.720;14.384;2023-10-19T13:03:10;9.40;99.90
18779;DHT22;9518;51.720;14.384;2023-10-19T13:05:44;9.50;99.90
18779;DHT22;9518;51.720;14.384;2023-10-19T13:08:13;9.60;99.90
18779;DHT22;9518;51.720;14.384;2023-10-19T13:10:43;9.70;99.90
18779;DHT22;9518;51.720;14.384;2023-10-19T13:13:13;9.80;99.90
18779;DHT22;9518;51.720;14.384;2023-10-19T13:15:43;9.90;99.90
18779;DHT22;9518;51.720;14.384;2023-10-19T13:18:13;9.80;99.90
18779;DHT22;9518;51.720;14.384;2023-10-19T13:20:46;9.80;99.90
18779;DHT22;9518;51.720;14.384;2023-10-19T13:23:15;9.80;99.90
18779;DHT22;9518;51.720;14.384;2023-10-19T13:25:47;9.80;99.90
18779;DHT22;9518;51.720;14.384;2023-10-19T13:28:20;9.70;99.90
18779;DHT22;9518;51.720;14.384;2023-10-19T13:30:53;9.60;99.90
18779;DHT22;9518;51.720;14.384;2023-10-19T13:33:21;9.60;99.90
18779;DHT22;9518;51.720;14.384;2023-10-19T13:35:50;9.60;99.90
18779;DHT22;9518;51.720;14.384;2023-10-19T13:38:19;9.50;99.90
18779;DHT22;9518;51.720;14.384;2023-10-19T13:40:46;9.50;99.90
18779;DHT22;9518;51.720;14.384;2023-10-19T13:43:15;9.40;99.90
18779;DHT22;9518;51.720;14.384;2023-10-19T13:45:45;9.40;99.90
18779;DHT22;9518;51.720;14.384;2023-10-19T13:48:13;9.30;99.90
18779;DHT22;9518;51.720;14.384;2023-10-19T13:50:42;9.40;99.90
18779;DHT22;9518;51.720;14.384;2023-10-19T13:53:11;9.30;99.90
18779;DHT22;9518;51.720;14.384;2023-10-19T13:55:41;9.30;99.90
18779;DHT22;9518;51.720;14.384;2023-10-19T13:58:08;9.30;99.90
18779;DHT22;9518;51.720;14.384;2023-10-19T14:00:40;9.30;99.90
18779;DHT22;9518;51.720;14.384;2023-10-19T14:03:09;9.30;99.90
18779;DHT22;9518;51.720;14.384;2023-10-19T14:05:41;9.30;99.90
18779;DHT22;9518;51.720;14.384;2023-10-19T14:08:14;9.30;99.90
18779;DHT22;9518;51.720;14.384;2023-10-19T14:10:43;9.30;99.90
18779;DHT22;9518;51.720;14.384;2023-10-19T14:13:10;9.20;99.90
18779;DHT22;9518;51.720;14.384;2023-10-19T14:15:39;9.20;99.90
18779;DHT22;9518;51.720;14.384;2023-10-19T14:18:06;9.20;99.90
18779;DHT22;9518;51.720;14.384;2023-10-19T14:20:34;9.20;99.90
18779;DHT22;9518;51.720;14.384;2023-10-19T14:23:04;9.20;99.90
18779;DHT22;9518;51.720;14.384;2023-10-19T14:25:35;9.20;99.90
18779;DHT22;9518;51.720;14.384;2023-10-19T14:28:05;9.20;99.90
18779;DHT22;9518;51.720;14.384;2023-10-19T14:30:33;9.20;99.90
18779;DHT22;9518;51.720;14.384;2023-10-19T14:33:00;9.10;99.90
18779;DHT22;9518;51.720;14.384;2023-10-19T14:35:28;9.10;99.90
18779;DHT22;9518;51.720;14.384;2023-10-19T14:37:56;9.10;99.90
18779;DHT22;9518;51.720;14.384;2023-10-19T14:40:26;9.20;99.90
18779;DHT22;9518;51.720;14.384;2023-10-19T14:42:55;9.20;99.90
18779;DHT22;9518;51.720;14.384;2023-10-19T14:45:25;9.20;99.90
18779;DHT22;9518;51.720;14.384;2023-10-19T14:47:55;9.20;99.90
18779;DHT22;9518;51.720;14.384;2023-10-19T14:50:23;9.10;99.90
18779;DHT22;9518;51.720;14.384;2023-10-19T14:52:51;9.10;99.90
18779;DHT22;9518;51.720;14.384;2023-10-19T14:55:20;9.10;99.90
18779;DHT22;9518;51.720;14.384;2023-10-19T14:57:49;9.00;99.90
18779;DHT22;9518;51.720;14.384;2023-10-19T15:00:19;9.00;99.90
18779;DHT22;9518;51.720;14.384;2023-10-19T15:03:01;9.00;99.90
18779;DHT22;9518;51.720;14.384;2023-10-19T15:05:33;9.00;99.90
18779;DHT22;9518;51.720;14.384;2023-10-19T15:08:02;9.00;99.90
18779;DHT22;9518;51.720;14.384;2023-10-19T15:10:31;9.00;99.90
18779;DHT22;9518;51.720;14.384;2023-10-19T15:12:58;9.00;99.90
18779;DHT22;9518;51.720;14.384;2023-10-19T15:15:26;9.00;99.90
18779;DHT22;9518;51.720;14.384;2023-10-19T15:17:54;9.00;99.90
18779;DHT22;9518;51.720;14.384;2023-10-19T15:20:28;8.90;99.90
18779;DHT22;9518;51.720;14.384;2023-10-19T15:22:57;8.90;99.90
18779;DHT22;9518;51.720;14.384;2023-10-19T15:25:25;8.90;99.90
18779;DHT22;9518;51.720;14.384;2023-10-19T15:27:54;8.90;99.90
18779;DHT22;9518;51.720;14.384;2023-10-19T15:30:22;8.90;99.90
18779;DHT22;9518;51.720;14.384;2023-10-19T15:32:52;8.90;99.90
18779;DHT22;9518;51.720;14.384;2023-10-19T15:35:20;8.90;99.90
18779;DHT22;9518;51.720;14.384;2023-10-19T15:37:50;8.90;99.90
18779;DHT22;9518;51.720;14.384;2023-10-19T15:40:19;8.90;99.90
18779;DHT22;9518;51.720;14.384;2023-10-19T15:42:47;8.90;99.90
18779;DHT22;9518;51.720;14.384;2023-10-19T15:45:15;8.80;99.90
18779;DHT22;9518;51.720;14.384;2023-10-19T15:47:44;8.80;99.90
18779;DHT22;9518;51.720;14.384;2023-10-19T15:50:12;8.80;99.90
18779;DHT22;9518;51.720;14.384;2023-10-19T15:52:43;8.80;99.90
18779;DHT22;9518;51.720;14.384;2023-10-19T15:55:12;8.80;99.90
18779;DHT22;9518;51.720;14.384;2023-10-19T15:57:40;8.80;99.90
18779;DHT22;9518;51.720;14.384;2023-10-19T16:00:08;8.70;99.90
18779;DHT22;9518;51.720;14.384;2023-10-19T16:02:39;8.70;99.90
18779;DHT22;9518;51.720;14.384;2023-10-19T16:05:07;8.70;99.90
18779;DHT22;9518;51.720;14.384;2023-10-19T16:07:34;8.70;99.90
18779;DHT22;9518;51.720;14.384;2023-10-19T16:10:02;8.70;99.90
18779;DHT22;9518;51.720;14.384;2023-10-19T16:12:31;8.60;99.90
18779;DHT22;9518;51.720;14.384;2023-10-19T16:14:59;8.60;99.90
18779;DHT22;9518;51.720;14.384;2023-10-19T16:17:27;8.70;99.90
18779;DHT22;9518;51.720;14.384;2023-10-19T16:19:54;8.60;99.90
18779;DHT22;9518;51.720;14.384;2023-10-19T16:22:21;8.60;99.90
18779;DHT22;9518;51.720;14.384;2023-10-19T16:24:48;8.60;99.90
18779;DHT22;9518;51.720;14.384;2023-10-19T16:27:15;8.60;99.90
18779;DHT22;9518;51.720;14.384;2023-10-19T16:29:44;8.60;99.90
18779;DHT22;9518;51.720;14.384;2023-10-19T16:32:12;8.60;99.90
18779;DHT22;9518;51.720;14.384;2023-10-19T16:34:40;8.60;99.90
18779;DHT22;9518;51.720;14.384;2023-10-19T16:37:07;8.60;99.90
18779;DHT22;9518;51.720;14.384;2023-10-19T16:39:34;8.60;99.90
18779;DHT22;9518;51.720;14.384;2023-10-19T16:42:01;8.60;99.90
18779;DHT22;9518;51.720;14.384;2023-10-19T16:44:29;8.60;99.90
18779;DHT22;9518;51.720;14.384;2023-10-19T16:46:59;8.60;99.90
18779;DHT22;9518;51.720;14.384;2023-10-19T16:49:27;8.60;99.90
18779;DHT22;9518;51.720;14.384;2023-10-19T16:52:00;8.60;99.90
18779;DHT22;9518;51.720;14.384;2023-10-19T16:54:28;8.60;99.90
18779;DHT22;9518;51.720;14.384;2023-10-19T16:56:55;8.60;99.90
18779;DHT22;9518;51.720;14.384;2023-10-19T16:59:22;8.60;99.90
18779;DHT22;9518;51.720;14.384;2023-10-19T17:01:51;8.50;99.90
18779;DHT22;9518;51.720;14.384;2023-10-19T17:04:21;8.50;99.90
18779;DHT22;9518;51.720;14.384;2023-10-19T17:06:49;8.50;99.90
18779;DHT22;9518;51.720;14.384;2023-10-19T17:09:19;8.50;99.90
18779;DHT22;9518;51.720;14.384;2023-10-19T17:11:46;8.50;99.90
18779;DHT22;9518;51.720;14.384;2023-10-19T17:14:14;8.50;99.90
18779;DHT22;9518;51.720;14.384;2023-10-19T17:16:41;8.50;99.90
18779;DHT22;9518;51.720;14.384;2023-10-19T17:19:10;8.50;99.90
18779;DHT22;9518;51.720;14.384;2023-10-19T17:21:39;8.50;99.90
18779;DHT22;9518;51.720;14.384;2023-10-19T17:24:07;8.50;99.90
18779;DHT22;9518;51.720;14.384;2023-10-19T17:26:34;8.60;99.90
18779;DHT22;9518;51.720;14.384;2023-10-19T17:29:01;8.60;99.90
18779;DHT22;9518;51.720;14.384;2023-10-19T17:31:29;8.60;99.90
18779;DHT22;9518;51.720;14.384;2023-10-19T17:33:56;8.60;99.90
18779;DHT22;9518;51.720;14.384;2023-10-19T17:36:24;8.60;99.90
18779;DHT22;9518;51.720;14.384;2023-10-19T17:38:56;8.60;99.90
18779;DHT22;9518;51.720;14.384;2023-10-19T17:41:23;8.60;99.90
18779;DHT22;9518;51.720;14.384;2023-10-19T17:43:51;8.60;99.90
18779;DHT22;9518;51.720;14.384;2023-10-19T17:46:20;8.50;99.90
18779;DHT22;9518;51.720;14.384;2023-10-19T17:48:47;8.50;99.90
18779;DHT22;9518;51.720;14.384;2023-10-19T17:51:18;8.50;99.90
18779;DHT22;9518;51.720;14.384;2023-10-19T17:53:48;8.60;99.90
18779;DHT22;9518;51.720;14.384;2023-10-19T17:56:17;8.60;99.90
18779;DHT22;9518;51.720;14.384;2023-10-19T17:58:45;8.60;99.90
18779;DHT22;9518;51.720;14.384;2023-10-19T18:01:12;8.50;99.90
18779;DHT22;9518;51.720;14.384;2023-10-19T18:03:40;8.50;99.90
18779;DHT22;9518;51.720;14.384;2023-10-19T18:06:07;8.50;99.90
18779;DHT22;9518;51.720;14.384;2023-10-19T18:08:35;8.50;99.90
18779;DHT22;9518;51.720;14.384;2023-10-19T18:11:03;8.50;99.90
18779;DHT22;9518;51.720;14.384;2023-10-19T18:13:32;8.50;99.90
18779;DHT22;9518;51.720;14.384;2023-10-19T18:16:02;8.50;99.90
18779;DHT22;9518;51.720;14.384;2023-10-19T18:18:30;8.50;99.90
18779;DHT22;9518;51.720;14.384;2023-10-19T18:20:57;8.50;99.90
18779;DHT22;9518;51.720;14.384;2023-10-19T18:23:26;8.50;99.90
18779;DHT22;9518;51.720;14.384;2023-10-19T18:25:53;8.50;99.90
18779;DHT22;9518;51.720;14.384;2023-10-19T18:28:21;8.50;99.90
18779;DHT22;9518;51.720;14.384;2023-10-19T18:30:58;8.50;99.90
18779;DHT22;9518;51.720;14.384;2023-10-19T18:33:26;8.50;99.90
18779;DHT22;9518;51.720;14.384;2023-10-19T18:35:58;8.50;99.90
18779;DHT22;9518;51.720;14.384;2023-10-19T18:38:26;8.50;99.90
18779;DHT22;9518;51.720;14.384;2023-10-19T18:40:57;8.50;99.90
18779;DHT22;9518;51.720;14.384;2023-10-19T18:43:28;8.50;99.90
18779;DHT22;9518;51.720;14.384;2023-10-19T18:45:57;8.50;99.90
18779;DHT22;9518;51.720;14.384;2023-10-19T18:48:25;8.50;99.90
18779;DHT22;9518;51.720;14.384;2023-10-19T18:50:57;8.50;99.90
18779;DHT22;9518;51.720;14.384;2023-10-19T18:53:24;8.50;99.90
18779;DHT22;9518;51.720;14.384;2023-10-19T18:55:52;8.50;99.90
18779;DHT22;9518;51.720;14.384;2023-10-19T18:58:19;8.50;99.90
18779;DHT22;9518;51.720;14.384;2023-10-19T19:01:03;8.50;99.90
18779;DHT22;9518;51.720;14.384;2023-10-19T19:03:32;8.50;99.90
18779;DHT22;9518;51.720;14.384;2023-10-19T19:06:03;8.50;99.90
18779;DHT22;9518;51.720;14.384;2023-10-19T19:08:33;8.50;99.90
18779;DHT22;9518;51.720;14.384;2023-10-19T19:11:08;8.50;99.90
18779;DHT22;9518;51.720;14.384;2023-10-19T19:13:36;8.50;99.90
18779;DHT22;9518;51.720;14.384;2023-10-19T19:16:05;8.60;99.90
18779;DHT22;9518;51.720;14.384;2023-10-19T19:18:33;8.50;99.90
18779;DHT22;9518;51.720;14.384;2023-10-19T19:21:02;8.50;99.90
18779;DHT22;9518;51.720;14.384;2023-10-19T19:23:33;8.60;99.90
18779;DHT22;9518;51.720;14.384;2023-10-19T19:26:00;8.60;99.90
18779;DHT22;9518;51.720;14.384;2023-10-19T19:28:30;8.60;99.90
18779;DHT22;9518;51.720;14.384;2023-10-19T19:30:58;8.60;99.90
18779;DHT22;9518;51.720;14.384;2023-10-19T19:33:28;8.60;99.90
18779;DHT22;9518;51.720;14.384;2023-10-19T19:35:55;8.60;99.90
18779;DHT22;9518;51.720;14.384;2023-10-19T19:38:22;8.60;99.90
18779;DHT22;9518;51.720;14.384;2023-10-19T19:40:50;8.60;99.90
18779;DHT22;9518;51.720;14.384;2023-10-19T19:43:18;8.60;99.90
18779;DHT22;9518;51.720;14.384;2023-10-19T19:45:45;8.60;99.90
18779;DHT22;9518;51.720;14.384;2023-10-19T19:48:13;8.60;99.90
18779;DHT22;9518;51.720;14.384;2023-10-19T19:50:44;8.60;99.90
18779;DHT22;9518;51.720;14.384;2023-10-19T19:53:12;8.60;99.90
18779;DHT22;9518;51.720;14.384;2023-10-19T19:55:40;8.60;99.90
18779;DHT22;9518;51.720;14.384;2023-10-19T19:58:08;8.60;99.90
18779;DHT22;9518;51.720;14.384;2023-10-19T20:00:36;8.60;99.90
18779;DHT22;9518;51.720;14.384;2023-10-19T20:03:11;8.70;99.90
18779;DHT22;9518;51.720;14.384;2023-10-19T20:05:40;8.70;99.90
18779;DHT22;9518;51.720;14.384;2023-10-19T20:08:08;8.60;99.90
18779;DHT22;9518;51.720;14.384;2023-10-19T20:10:38;8.60;99.90
18779;DHT22;9518;51.720;14.384;2023-10-19T20:13:06;8.60;99.90
18779;DHT22;9518;51.720;14.384;2023-10-19T20:15:33;8.60;99.90
18779;DHT22;9518;51.720;14.384;2023-10-19T20:18:01;8.60;99.90
18779;DHT22;9518;51.720;14.384;2023-10-19T20:20:28;8.60;99.90
18779;DHT22;9518;51.720;14.384;2023-10-19T20:22:58;8.60;99.90
18779;DHT22;9518;51.720;14.384;2023-10-19T20:25:25;8.60;99.90
18779;DHT22;9518;51.720;14.384;2023-10-19T20:27:54;8.60;99.90
18779;DHT22;9518;51.720;14.384;2023-10-19T20:30:22;8.60;99.90
18779;DHT22;9518;51.720;14.384;2023-10-19T20:32:50;8.60;99.90
18779;DHT22;9518;51.720;14.384;2023-10-19T20:35:19;8.60;99.90
18779;DHT22;9518;51.720;14.384;2023-10-19T20:37:47;8.60;99.90
18779;DHT22;9518;51.720;14.384;2023-10-19T20:40:17;8.60;99.90
18779;DHT22;9518;51.720;14.384;2023-10-19T20:42:47;8.60;99.90
18779;DHT22;9518;51.720;14.384;2023-10-19T20:45:15;8.50;99.90
18779;DHT22;9518;51.720;14.384;2023-10-19T20:47:46;8.50;99.90
18779;DHT22;9518;51.720;14.384;2023-10-19T20:50:14;8.50;99.90
18779;DHT22;9518;51.720;14.384;2023-10-19T20:52:42;8.60;99.90
18779;DHT22;9518;51.720;14.384;2023-10-19T20:55:09;8.50;99.90
18779;DHT22;9518;51.720;14.384;2023-10-19T20:57:40;8.50;99.90
18779;DHT22;9518;51.720;14.384;2023-10-19T21:00:08;8.50;99.90
18779;DHT22;9518;51.720;14.384;2023-10-19T21:02:37;8.50;99.90
18779;DHT22;9518;51.720;14.384;2023-10-19T21:05:06;8.50;99.90
18779;DHT22;9518;51.720;14.384;2023-10-19T21:07:37;8.50;99.90
18779;DHT22;9518;51.720;14.384;2023-10-19T21:10:07;8.50;99.90
18779;DHT22;9518;51.720;14.384;2023-10-19T21:12:36;8.50;99.90
18779;DHT22;9518;51.720;14.384;2023-10-19T21:15:07;8.50;99.90
18779;DHT22;9518;51.720;14.384;2023-10-19T21:17:38;8.50;99.90
18779;DHT22;9518;51.720;14.384;2023-10-19T21:20:06;8.50;99.90
18779;DHT22;9518;51.720;14.384;2023-10-19T21:22:35;8.50;99.90
18779;DHT22;9518;51.720;14.384;2023-10-19T21:25:02;8.40;99.90
18779;DHT22;9518;51.720;14.384;2023-10-19T21:27:30;8.40;99.90
18779;DHT22;9518;51.720;14.384;2023-10-19T21:29:57;8.40;99.90
18779;DHT22;9518;51.720;14.384;2023-10-19T21:32:26;8.40;99.90
18779;DHT22;9518;51.720;14.384;2023-10-19T21:34:55;8.40;99.90
18779;DHT22;9518;51.720;14.384;2023-10-19T21:37:26;8.40;99.90
18779;DHT22;9518;51.720;14.384;2023-10-19T21:39:53;8.40;99.90
18779;DHT22;9518;51.720;14.384;2023-10-19T21:42:20;8.40;99.90
18779;DHT22;9518;51.720;14.384;2023-10-19T21:44:48;8.40;99.90
18779;DHT22;9518;51.720;14.384;2023-10-19T21:47:16;8.30;99.90
18779;DHT22;9518;51.720;14.384;2023-10-19T21:49:49;8.30;99.90
18779;DHT22;9518;51.720;14.384;2023-10-19T21:52:17;8.30;99.90
18779;DHT22;9518;51.720;14.384;2023-10-19T21:54:46;8.30;99.90
18779;DHT22;9518;51.720;14.384;2023-10-19T21:57:14;8.30;99.90
18779;DHT22;9518;51.720;14.384;2023-10-19T21:59:43;8.30;99.90
18779;DHT22;9518;51.720;14.384;2023-10-19T22:02:10;8.30;99.90
18779;DHT22;9518;51.720;14.384;2023-10-19T22:04:38;8.30;99.90
18779;DHT22;9518;51.720;14.384;2023-10-19T22:07:06;8.30;99.90
18779;DHT22;9518;51.720;14.384;2023-10-19T22:09:34;8.30;99.90
18779;DHT22;9518;51.720;14.384;2023-10-19T22:12:01;8.20;99.90
18779;DHT22;9518;51.720;14.384;2023-10-19T22:14:29;8.20;99.90
18779;DHT22;9518;51.720;14.384;2023-10-19T22:16:57;8.20;99.90
18779;DHT22;9518;51.720;14.384;2023-10-19T22:19:26;8.10;99.90
18779;DHT22;9518;51.720;14.384;2023-10-19T22:21:53;8.10;99.90
18779;DHT22;9518;51.720;14.384;2023-10-19T22:24:22;8.10;99.90
18779;DHT22;9518;51.720;14.384;2023-10-19T22:26:50;8.20;99.90
18779;DHT22;9518;51.720;14.384;2023-10-19T22:29:17;8.10;99.90
18779;DHT22;9518;51.720;14.384;2023-10-19T22:31:45;8.10;99.90
18779;DHT22;9518;51.720;14.384;2023-10-19T22:34:16;8.10;99.90
18779;DHT22;9518;51.720;14.384;2023-10-19T22:36:44;8.10;99.90
18779;DHT22;9518;51.720;14.384;2023-10-19T22:39:11;8.00;99.90
18779;DHT22;9518;51.720;14.384;2023-10-19T22:41:40;8.00;99.90